createdAt,value
2023-05-14T00:00:29.893Z,11.40
2023-05-14T00:03:59.981Z,11.30
2023-05-14T00:07:33.189Z,10.50
2023-05-14T00:16:27.291Z,13.20
2023-05-14T00:19:51.765Z,13.00
2023-05-14T00:23:11.625Z,14.30
2023-05-14T00:26:16.889Z,12.90
2023-05-14T00:30:02.854Z,12.60
2023-05-14T00:33:08.459Z,12.60
2023-05-14T00:36:40.767Z,11.70
2023-05-14T00:40:01.317Z,12.00
2023-05-14T00:43:06.693Z,12.20
2023-05-14T00:46:12.660Z,12.80
2023-05-14T00:49:18.999Z,13.70
2023-05-14T00:52:46.191Z,13.20
2023-05-14T00:56:03.973Z,12.50
2023-05-14T00:59:09.728Z,10.80
2023-05-14T01:02:27.937Z,10.50
2023-05-14T01:06:26.559Z,14.10
2023-05-14T01:09:46.333Z,13.40
2023-05-14T01:13:09.616Z,13.90
2023-05-14T01:16:16.968Z,13.10
2023-05-14T01:19:48.327Z,10.60
2023-05-14T01:22:56.862Z,10.80
2023-05-14T01:26:04.516Z,11.20
2023-05-14T01:29:22.039Z,12.10
2023-05-14T01:32:34.741Z,11.80
2023-05-14T01:35:40.736Z,11.80
2023-05-14T01:38:49.882Z,11.80
2023-05-14T01:41:59.612Z,10.90
2023-05-14T01:45:07.560Z,9.80
2023-05-14T01:48:17.216Z,8.80
2023-05-14T01:51:37.146Z,11.00
2023-05-14T01:54:44.640Z,9.70
2023-05-14T01:57:57.207Z,11.30
2023-05-14T02:01:23.099Z,9.60
2023-05-14T02:04:30.325Z,8.60
2023-05-14T02:07:38.910Z,8.90
2023-05-14T02:11:18.833Z,10.50
2023-05-14T02:14:29.830Z,9.60
2023-05-14T02:17:57.270Z,8.80
2023-05-14T02:21:26.155Z,8.90
2023-05-14T02:24:54.326Z,13.10
2023-05-14T02:28:26.466Z,10.70
2023-05-14T02:31:39.648Z,12.20
2023-05-14T02:34:47.486Z,10.00
2023-05-14T02:37:52.263Z,10.70
2023-05-14T02:40:55.053Z,13.00
2023-05-14T02:44:05.776Z,10.70
2023-05-14T02:47:10.861Z,10.10
2023-05-14T02:50:13.874Z,10.70
2023-05-14T02:53:16.803Z,9.20
2023-05-14T02:56:35.629Z,8.90
2023-05-14T02:59:45.561Z,8.50
2023-05-14T03:03:17.062Z,8.70
2023-05-14T03:06:40.711Z,8.50
2023-05-14T03:10:12.876Z,10.50
2023-05-14T03:13:28.636Z,8.10
2023-05-14T03:16:33.566Z,8.70
2023-05-14T03:19:44.695Z,7.40
2023-05-14T03:27:53.243Z,8.10
2023-05-14T03:31:02.367Z,10.10
2023-05-14T03:34:06.395Z,8.50
2023-05-14T03:37:24.654Z,7.60
2023-05-14T03:40:36.601Z,9.70
2023-05-14T03:43:43.519Z,7.30
2023-05-14T03:46:50.935Z,7.40
2023-05-14T03:49:58.568Z,9.80
2023-05-14T03:53:17.225Z,6.70
2023-05-14T03:56:26.355Z,9.30
2023-05-14T03:59:36.206Z,9.30
2023-05-14T04:02:41.402Z,8.00
2023-05-14T04:05:46.491Z,9.60
2023-05-14T04:08:54.244Z,8.30
2023-05-14T04:15:05.854Z,7.20
2023-05-14T04:18:20.277Z,6.50
2023-05-14T04:21:25.248Z,6.60
2023-05-14T04:24:36.553Z,5.90
2023-05-14T04:27:40.770Z,6.00
2023-05-14T04:30:53.528Z,6.00
2023-05-14T04:33:57.280Z,7.20
2023-05-14T04:37:00.086Z,4.80
2023-05-14T04:40:06.196Z,5.90
2023-05-14T04:43:09.474Z,4.80
2023-05-14T04:46:28.959Z,4.50
2023-05-14T04:49:33.839Z,5.50
2023-05-14T04:53:01.842Z,6.40
2023-05-14T04:56:08.452Z,5.00
2023-05-14T04:59:13.807Z,5.70
2023-05-14T05:02:18.042Z,4.70
2023-05-14T05:05:25.042Z,5.10
2023-05-14T05:08:29.488Z,5.00
2023-05-14T05:11:32.419Z,4.50
2023-05-14T05:14:35.307Z,6.40
2023-05-14T05:17:40.588Z,5.20
2023-05-14T05:20:47.494Z,4.30
2023-05-14T05:23:51.060Z,4.40
2023-05-14T05:26:55.835Z,4.50
2023-05-14T05:29:59.137Z,5.20
2023-05-14T05:33:02.121Z,4.10
2023-05-14T05:36:10.068Z,5.00
2023-05-14T05:39:35.000Z,6.00
2023-05-14T05:42:48.802Z,5.30
2023-05-14T05:46:12.060Z,8.10
2023-05-14T05:49:15.018Z,5.30
2023-05-14T05:52:17.803Z,4.70
2023-05-14T05:55:20.802Z,6.40
2023-05-14T05:58:24.199Z,5.50
2023-05-14T06:01:27.384Z,5.50
2023-05-14T06:04:38.828Z,5.50
2023-05-14T06:07:49.912Z,5.20
2023-05-14T06:10:55.787Z,5.30
2023-05-14T06:13:58.661Z,7.10
2023-05-14T06:17:03.786Z,5.90
2023-05-14T06:20:10.074Z,7.30
2023-05-14T06:23:35.233Z,8.60
2023-05-14T06:26:39.972Z,7.00
2023-05-14T06:30:01.201Z,7.30
2023-05-14T06:33:40.720Z,6.20
2023-05-14T06:37:08.136Z,6.30
2023-05-14T06:40:24.800Z,5.60
2023-05-14T06:43:41.092Z,8.00
2023-05-14T06:46:48.774Z,5.10
2023-05-14T06:50:01.198Z,4.10
2023-05-14T06:53:04.892Z,5.60
2023-05-14T06:56:08.053Z,4.30
2023-05-14T06:59:40.513Z,5.90
2023-05-14T07:02:45.742Z,5.40
2023-05-14T07:05:56.160Z,6.20
2023-05-14T07:09:01.999Z,6.10
2023-05-14T07:12:10.028Z,4.30
2023-05-14T07:15:21.253Z,5.30
2023-05-14T07:18:26.064Z,2.70
2023-05-14T07:21:29.584Z,5.00
2023-05-14T07:24:32.483Z,6.10
2023-05-14T07:27:44.604Z,5.80
2023-05-14T07:31:06.003Z,5.30
2023-05-14T07:34:11.757Z,5.80
2023-05-14T07:37:14.794Z,5.90
2023-05-14T07:40:48.612Z,5.90
2023-05-14T07:44:11.552Z,5.90
2023-05-14T07:47:18.297Z,6.60
2023-05-14T07:50:27.619Z,6.00
2023-05-14T07:53:50.688Z,5.00
2023-05-14T07:56:53.732Z,5.20
2023-05-14T07:59:57.135Z,5.20
2023-05-14T08:03:00.178Z,6.90
2023-05-14T08:06:07.228Z,5.90
2023-05-14T08:09:17.600Z,5.80
2023-05-14T08:12:25.642Z,6.70
2023-05-14T08:16:11.565Z,5.80
2023-05-14T08:19:15.193Z,6.90
2023-05-14T08:22:20.919Z,5.80
2023-05-14T08:25:25.797Z,6.20
2023-05-14T08:28:28.734Z,8.00
2023-05-14T08:31:58.258Z,5.80
2023-05-14T08:35:32.273Z,6.60
2023-05-14T08:38:58.695Z,5.80
2023-05-14T08:42:21.952Z,7.10
2023-05-14T08:45:34.169Z,7.60
2023-05-14T08:48:49.220Z,6.50
2023-05-14T08:51:54.739Z,6.20
2023-05-14T08:55:00.749Z,7.20
2023-05-14T08:58:07.464Z,6.30
2023-05-14T09:01:10.318Z,6.70
2023-05-14T09:04:16.709Z,7.50
2023-05-14T09:07:55.023Z,6.60
2023-05-14T09:11:02.044Z,7.20
2023-05-14T09:14:33.319Z,7.90
2023-05-14T09:17:42.340Z,7.80
2023-05-14T09:21:08.191Z,7.90
2023-05-14T09:25:03.522Z,8.20
2023-05-14T09:28:17.632Z,8.80
2023-05-14T09:31:27.515Z,6.90
2023-05-14T09:34:41.670Z,7.70
2023-05-14T09:37:47.156Z,7.30
2023-05-14T09:43:56.923Z,6.60
2023-05-14T09:47:00.157Z,7.80
2023-05-14T09:50:09.773Z,7.30
2023-05-14T09:53:18.610Z,7.40
2023-05-14T09:56:26.931Z,7.70
2023-05-14T09:59:36.749Z,7.70
2023-05-14T10:02:43.878Z,7.30
2023-05-14T10:05:51.494Z,7.30
2023-05-14T10:08:57.357Z,6.60
2023-05-14T10:12:01.456Z,6.30
2023-05-14T10:15:43.715Z,5.90
2023-05-14T10:19:05.161Z,5.40
2023-05-14T10:22:22.385Z,7.70
2023-05-14T10:25:31.563Z,5.90
2023-05-14T10:28:36.772Z,7.40
2023-05-14T10:31:54.266Z,5.50
2023-05-14T10:35:25.495Z,5.70
2023-05-14T10:38:35.224Z,5.20
2023-05-14T10:41:43.698Z,6.50
2023-05-14T10:44:57.781Z,5.70
2023-05-14T10:48:16.697Z,5.20
2023-05-14T10:51:28.712Z,5.10
2023-05-14T10:54:35.986Z,5.20
2023-05-14T10:57:46.347Z,7.30
2023-05-14T11:01:15.408Z,9.40
2023-05-14T11:04:42.571Z,6.70
2023-05-14T11:07:50.647Z,6.90
2023-05-14T11:10:56.541Z,6.70
2023-05-14T11:14:01.358Z,6.00
2023-05-14T11:17:10.660Z,7.40
2023-05-14T11:20:16.883Z,8.20
2023-05-14T11:23:25.372Z,5.90
2023-05-14T11:26:32.472Z,8.30
2023-05-14T11:29:46.298Z,6.40
2023-05-14T11:33:04.624Z,5.60
2023-05-14T11:36:17.752Z,6.10
2023-05-14T11:39:22.433Z,5.70
2023-05-14T11:42:27.492Z,5.80
2023-05-14T11:45:33.153Z,4.60
2023-05-14T11:48:36.508Z,6.50
2023-05-14T11:51:41.044Z,5.30
2023-05-14T11:54:49.741Z,5.30
2023-05-14T12:01:04.387Z,6.70
2023-05-14T12:04:14.472Z,6.40
2023-05-14T12:07:29.495Z,4.70
2023-05-14T12:10:42.194Z,5.10
2023-05-14T12:13:52.907Z,5.00
2023-05-14T12:16:59.549Z,4.70
2023-05-14T12:20:04.254Z,4.60
2023-05-14T12:23:12.391Z,4.60
2023-05-14T12:26:16.702Z,4.90
2023-05-14T12:29:28.159Z,4.80
2023-05-14T12:32:36.873Z,4.70
2023-05-14T12:35:43.097Z,4.30
2023-05-14T12:39:04.378Z,4.30
2023-05-14T12:42:40.800Z,5.10
2023-05-14T12:45:56.172Z,3.80
2023-05-14T12:49:26.643Z,3.90
2023-05-14T12:52:53.091Z,5.00
2023-05-14T12:56:01.414Z,3.70
2023-05-14T12:59:05.938Z,3.80
2023-05-14T13:02:10.834Z,4.30
2023-05-14T13:05:33.888Z,4.00
2023-05-14T13:08:40.547Z,5.40
2023-05-14T13:11:45.353Z,3.90
2023-05-14T13:14:50.167Z,3.80
2023-05-14T13:17:56.630Z,4.60
2023-05-14T13:21:05.831Z,3.60
2023-05-14T13:24:20.957Z,4.10
2023-05-14T13:27:28.509Z,3.10
2023-05-14T13:30:39.053Z,3.80
2023-05-14T13:33:54.834Z,3.20
2023-05-14T13:37:00.926Z,3.40
2023-05-14T13:40:28.439Z,4.40
2023-05-14T13:43:47.111Z,4.30
2023-05-14T13:47:09.708Z,3.00
2023-05-14T13:50:23.045Z,3.20
2023-05-14T13:56:59.858Z,4.90
2023-05-14T14:00:08.945Z,3.10
2023-05-14T14:03:13.713Z,3.10
2023-05-14T14:06:35.444Z,2.80
2023-05-14T14:10:02.504Z,3.10
2023-05-14T14:13:19.040Z,3.00
2023-05-14T14:16:28.226Z,2.60
2023-05-14T14:19:40.821Z,3.30
2023-05-14T14:23:08.121Z,2.90
2023-05-14T14:26:17.857Z,4.50
2023-05-14T14:29:51.321Z,2.80
2023-05-14T14:33:07.430Z,2.80
2023-05-14T14:36:22.031Z,3.10
2023-05-14T14:39:29.168Z,2.50
2023-05-14T14:42:38.870Z,2.50
2023-05-14T14:45:49.473Z,3.60
2023-05-14T14:49:02.369Z,3.50
2023-05-14T14:52:29.828Z,5.00
2023-05-14T14:59:17.636Z,3.70
2023-05-14T15:02:28.700Z,4.50
2023-05-14T15:05:40.521Z,4.00
2023-05-14T15:09:01.100Z,6.60
2023-05-14T15:12:25.157Z,7.10
2023-05-14T15:15:40.539Z,9.70
2023-05-14T15:18:48.323Z,9.30
2023-05-14T15:22:00.548Z,5.40
2023-05-14T15:25:58.871Z,7.00
2023-05-14T15:29:09.365Z,6.30
2023-05-14T15:32:19.656Z,10.40
2023-05-14T15:35:41.608Z,7.70
2023-05-14T15:38:52.136Z,8.30
2023-05-14T15:42:16.978Z,6.70
2023-05-14T15:45:19.860Z,5.60
2023-05-14T15:48:30.580Z,6.40
2023-05-14T15:51:42.170Z,5.60
2023-05-14T15:54:48.393Z,3.70
2023-05-14T15:57:56.401Z,6.50
2023-05-14T16:01:09.496Z,3.40
2023-05-14T16:04:17.932Z,3.10
2023-05-14T16:07:36.828Z,6.90
2023-05-14T16:10:55.749Z,4.30
2023-05-14T16:14:04.722Z,4.40
2023-05-14T16:17:32.439Z,7.00
2023-05-14T16:20:43.556Z,3.90
2023-05-14T16:24:10.674Z,3.60
2023-05-14T16:27:27.522Z,7.30
2023-05-14T16:30:32.205Z,5.50
2023-05-14T16:33:42.086Z,4.70
2023-05-14T16:37:00.934Z,4.40
2023-05-14T16:43:07.006Z,7.00
2023-05-14T16:46:10.498Z,8.00
2023-05-14T16:49:15.302Z,8.10
2023-05-14T16:52:18.614Z,20.50
2023-05-14T16:55:22.019Z,23.80
2023-05-14T16:58:28.651Z,21.10
2023-05-14T17:01:40.787Z,11.90
2023-05-14T17:04:46.767Z,8.60
2023-05-14T17:10:53.749Z,9.70
2023-05-14T17:14:31.778Z,9.90
2023-05-14T17:18:09.231Z,10.50
2023-05-14T17:21:12.222Z,7.80
2023-05-14T17:24:30.375Z,5.50
2023-05-14T17:28:15.913Z,8.10
2023-05-14T17:31:59.169Z,9.30
2023-05-14T17:39:26.193Z,5.80
2023-05-14T18:23:36.892Z,16.30
2023-05-14T18:27:04.080Z,18.00
2023-05-14T18:41:06.673Z,13.00
2023-05-14T18:44:09.555Z,11.60
2023-05-14T18:47:13.620Z,20.60
2023-05-14T18:50:16.530Z,11.80
2023-05-14T18:53:19.515Z,14.30
2023-05-14T18:56:23.260Z,7.60
2023-05-14T18:59:27.834Z,12.50
2023-05-14T19:02:31.032Z,12.50
2023-05-14T19:05:45.649Z,9.40
2023-05-14T19:08:48.571Z,10.60
2023-05-14T19:11:51.597Z,12.20
2023-05-14T19:14:54.624Z,10.30
2023-05-14T19:17:57.819Z,8.90
2023-05-14T19:21:01.365Z,11.20
2023-05-14T19:24:12.190Z,10.70
2023-05-14T19:27:17.427Z,10.20
2023-05-14T19:30:23.425Z,12.50
2023-05-14T19:33:27.777Z,17.70
2023-05-14T19:36:36.236Z,15.50
2023-05-14T19:39:39.314Z,13.60
2023-05-14T19:42:44.048Z,21.40
2023-05-14T19:45:48.730Z,17.90
2023-05-14T19:48:53.535Z,13.90
2023-05-14T19:51:56.317Z,13.20
2023-05-14T19:55:00.388Z,14.30
2023-05-14T19:58:11.831Z,13.10
2023-05-14T20:01:36.707Z,11.50
2023-05-14T20:08:16.807Z,10.60
2023-05-14T20:11:19.730Z,14.90
2023-05-14T20:14:22.573Z,16.60
2023-05-14T20:17:25.579Z,20.60
2023-05-14T20:20:31.143Z,16.30
2023-05-14T20:23:38.490Z,21.30
2023-05-14T20:26:43.209Z,20.60
2023-05-14T20:29:46.854Z,21.50
2023-05-14T20:32:50.338Z,25.40
2023-05-14T20:36:21.008Z,24.90
2023-05-14T20:39:25.306Z,23.00
2023-05-14T20:42:28.964Z,23.70
2023-05-14T20:45:32.008Z,29.00
2023-05-14T20:48:34.955Z,32.90
2023-05-14T20:51:40.103Z,30.00
2023-05-14T20:54:44.170Z,23.40
2023-05-14T20:57:47.121Z,22.30
2023-05-14T21:00:50.024Z,29.90
2023-05-14T21:03:53.155Z,32.60
2023-05-14T21:06:58.081Z,31.80
2023-05-14T21:10:03.983Z,30.40
2023-05-14T21:13:10.142Z,29.90
2023-05-14T21:16:13.127Z,30.20
2023-05-14T21:19:16.259Z,29.50
2023-05-14T21:22:19.205Z,27.30
2023-05-14T21:25:23.304Z,27.90
2023-05-14T21:28:27.319Z,31.00
2023-05-14T21:31:31.000Z,24.90
2023-05-14T21:34:39.899Z,28.10
2023-05-14T21:37:43.864Z,28.60
2023-05-14T21:40:48.923Z,25.90
2023-05-14T21:43:51.892Z,26.10
2023-05-14T21:46:54.926Z,28.60
2023-05-14T21:49:59.818Z,24.10
2023-05-14T21:53:04.617Z,28.50
2023-05-14T21:56:09.303Z,26.20
2023-05-14T21:59:12.293Z,28.00
2023-05-14T22:02:15.152Z,27.50
2023-05-14T22:05:22.686Z,28.40
2023-05-14T22:08:27.790Z,27.60
2023-05-14T22:11:30.612Z,34.70
2023-05-14T22:14:35.521Z,30.90
2023-05-14T22:17:39.031Z,30.80
2023-05-14T22:20:43.022Z,29.80
2023-05-14T22:26:54.800Z,26.30
2023-05-14T22:30:04.040Z,28.40
2023-05-14T22:33:14.237Z,24.80
2023-05-14T22:36:26.021Z,27.20
2023-05-14T22:39:32.842Z,27.80
2023-05-14T22:45:44.228Z,42.10
2023-05-14T22:49:16.049Z,31.30
2023-05-14T22:52:34.879Z,30.00
2023-05-14T22:55:39.001Z,29.60
2023-05-14T22:58:41.940Z,35.50
2023-05-14T23:01:45.226Z,33.80
2023-05-14T23:04:48.375Z,30.00
2023-05-14T23:08:02.820Z,28.70
2023-05-14T23:11:06.676Z,30.40
2023-05-14T23:14:09.558Z,30.00
2023-05-14T23:17:14.474Z,30.70
2023-05-14T23:20:17.753Z,29.90
2023-05-14T23:23:26.094Z,28.20
2023-05-14T23:26:36.382Z,32.10
2023-05-14T23:29:39.205Z,30.70
2023-05-14T23:32:44.052Z,34.20
2023-05-14T23:35:58.841Z,32.20
2023-05-14T23:39:02.499Z,31.60
2023-05-14T23:42:05.744Z,33.40
2023-05-14T23:45:16.409Z,29.10
2023-05-14T23:48:22.828Z,33.40
2023-05-14T23:51:38.294Z,34.80
2023-05-14T23:54:43.045Z,30.80
2023-05-14T23:57:48.752Z,32.50
